Terminal Aerodrome Forecast
Issued by NWS Paducah, KY

Home | Current Version | Previous Version | Text Only | Print | Product List | Glossary On
Versions: 1 2 3 4 5 6 7 8 9 10 11 12 13 14 15 16 17
000
FTUS43 KPAH 041720
TAFPAH
TAF
KPAH 041720Z 0418/0518 VRB03KT P6SM FEW050 SCT250
     FM050000 00000KT P6SM FEW250
     FM050600 00000KT 2SM BR FEW250
     FM051400 14004KT 6SM HZ SCT250=

USA.gov is the U.S. government's official web portal to all federal, state and local government web resources and services.